sensor_id;sensor_type;location;lat;lon;timestamp;pressure;altitude;pressure_sealevel;temperature;humidity
60170;BME280;46042;49.444;6.862;2023-03-14T00:00:17;96788.34;;;7.91;100.00
60170;BME280;46042;49.444;6.862;2023-03-14T00:02:43;96796.31;;;7.89;100.00
60170;BME280;46042;49.444;6.862;2023-03-14T00:05:10;96796.31;;;7.89;100.00
60170;BME280;46042;49.444;6.862;2023-03-14T00:07:38;96784.19;;;7.88;100.00
60170;BME280;46042;49.444;6.862;2023-03-14T00:10:09;96785.03;;;7.89;100.00
60170;BME280;46042;49.444;6.862;2023-03-14T00:12:37;96790.28;;;7.89;100.00
60170;BME280;46042;49.444;6.862;2023-03-14T00:15:03;96789.31;;;7.90;100.00
60170;BME280;46042;49.444;6.862;2023-03-14T00:17:34;96782.53;;;7.87;100.00
60170;BME280;46042;49.444;6.862;2023-03-14T00:20:01;96768.56;;;7.87;100.00
60170;BME280;46042;49.444;6.862;2023-03-14T00:22:35;96767.75;;;7.86;100.00
60170;BME280;46042;49.444;6.862;2023-03-14T00:25:03;96757.84;;;7.90;100.00
60170;BME280;46042;49.444;6.862;2023-03-14T00:27:30;96763.09;;;7.90;100.00
60170;BME280;46042;49.444;6.862;2023-03-14T00:29:57;96760.59;;;7.88;100.00
60170;BME280;46042;49.444;6.862;2023-03-14T00:32:24;96772.63;;;7.91;100.00
60170;BME280;46042;49.444;6.862;2023-03-14T00:34:50;96774.28;;;7.92;100.00
60170;BME280;46042;49.444;6.862;2023-03-14T00:37:17;96783.09;;;7.91;100.00
60170;BME280;46042;49.444;6.862;2023-03-14T00:39:44;96786.00;;;7.88;100.00
60170;BME280;46042;49.444;6.862;2023-03-14T00:42:10;96791.47;;;7.85;100.00
60170;BME280;46042;49.444;6.862;2023-03-14T00:44:37;96797.41;;;7.87;100.00
60170;BME280;46042;49.444;6.862;2023-03-14T00:47:04;96791.63;;;7.83;100.00
60170;BME280;46042;49.444;6.862;2023-03-14T00:49:31;96790.50;;;7.86;100.00
60170;BME280;46042;49.444;6.862;2023-03-14T00:51:57;96782.91;;;7.82;100.00
60170;BME280;46042;49.444;6.862;2023-03-14T00:54:24;96786.09;;;7.86;100.00
60170;BME280;46042;49.444;6.862;2023-03-14T00:56:51;96788.84;;;7.85;100.00
60170;BME280;46042;49.444;6.862;2023-03-14T00:59:17;96792.00;;;7.78;100.00
60170;BME280;46042;49.444;6.862;2023-03-14T01:01:44;96792.00;;;7.78;100.00
60170;BME280;46042;49.444;6.862;2023-03-14T01:04:11;96792.84;;;7.79;100.00
60170;BME280;46042;49.444;6.862;2023-03-14T01:06:38;96795.69;;;7.76;100.00
60170;BME280;46042;49.444;6.862;2023-03-14T01:09:05;96796.41;;;7.78;100.00
60170;BME280;46042;49.444;6.862;2023-03-14T01:11:34;96795.69;;;7.76;100.00
60170;BME280;46042;49.444;6.862;2023-03-14T01:14:02;96795.31;;;7.80;100.00
60170;BME280;46042;49.444;6.862;2023-03-14T01:16:32;96788.28;;;7.81;100.00
60170;BME280;46042;49.444;6.862;2023-03-14T01:18:59;96785.41;;;7.84;100.00
60170;BME280;46042;49.444;6.862;2023-03-14T01:21:29;96781.94;;;7.83;100.00
60170;BME280;46042;49.444;6.862;2023-03-14T01:23:58;96779.47;;;7.82;100.00
60170;BME280;46042;49.444;6.862;2023-03-14T01:26:27;96772.41;;;7.82;100.00
60170;BME280;46042;49.444;6.862;2023-03-14T01:28:55;96775.03;;;7.82;100.00
60170;BME280;46042;49.444;6.862;2023-03-14T01:31:23;96768.72;;;7.85;100.00
60170;BME280;46042;49.444;6.862;2023-03-14T01:33:50;96768.84;;;7.83;100.00
60170;BME280;46042;49.444;6.862;2023-03-14T01:36:17;96756.84;;;7.81;100.00
60170;BME280;46042;49.444;6.862;2023-03-14T01:38:44;96767.56;;;7.78;100.00
60170;BME280;46042;49.444;6.862;2023-03-14T01:41:21;96767.31;;;7.81;100.00
60170;BME280;46042;49.444;6.862;2023-03-14T01:43:48;96753.25;;;7.82;100.00
60170;BME280;46042;49.444;6.862;2023-03-14T01:46:22;96758.03;;;7.77;100.00
60170;BME280;46042;49.444;6.862;2023-03-14T01:48:57;96764.41;;;7.74;100.00
60170;BME280;46042;49.444;6.862;2023-03-14T01:53:57;96748.47;;;7.66;100.00
60170;BME280;46042;49.444;6.862;2023-03-14T01:56:26;96748.94;;;7.71;100.00
60170;BME280;46042;49.444;6.862;2023-03-14T01:58:54;96749.31;;;7.66;100.00
60170;BME280;46042;49.444;6.862;2023-03-14T02:01:24;96733.59;;;7.66;100.00
60170;BME280;46042;49.444;6.862;2023-03-14T02:03:56;96725.41;;;7.60;100.00
60170;BME280;46042;49.444;6.862;2023-03-14T02:06:27;96722.91;;;7.58;100.00
60170;BME280;46042;49.444;6.862;2023-03-14T02:08:56;96722.09;;;7.58;100.00
60170;BME280;46042;49.444;6.862;2023-03-14T02:11:27;96721.41;;;7.56;100.00
60170;BME280;46042;49.444;6.862;2023-03-14T02:13:55;96711.88;;;7.54;100.00
60170;BME280;46042;49.444;6.862;2023-03-14T02:16:23;96712.69;;;7.55;100.00
60170;BME280;46042;49.444;6.862;2023-03-14T02:18:50;96712.59;;;7.57;100.00
60170;BME280;46042;49.444;6.862;2023-03-14T02:27:15;96705.50;;;7.47;100.00
60170;BME280;46042;49.444;6.862;2023-03-14T02:29:51;96700.50;;;7.44;100.00
60170;BME280;46042;49.444;6.862;2023-03-14T02:32:20;96686.84;;;7.40;100.00
60170;BME280;46042;49.444;6.862;2023-03-14T02:34:52;96692.06;;;7.40;100.00
60170;BME280;46042;49.444;6.862;2023-03-14T02:37:23;96694.56;;;7.42;100.00
60170;BME280;46042;49.444;6.862;2023-03-14T02:39:51;96691.38;;;7.38;100.00
60170;BME280;46042;49.444;6.862;2023-03-14T02:42:18;96687.94;;;7.38;100.00
60170;BME280;46042;49.444;6.862;2023-03-14T02:47:53;96682.72;;;7.38;100.00
60170;BME280;46042;49.444;6.862;2023-03-14T02:50:23;96681.03;;;7.37;100.00
60170;BME280;46042;49.444;6.862;2023-03-14T02:52:51;96670.00;;;7.33;100.00
60170;BME280;46042;49.444;6.862;2023-03-14T02:55:21;96672.59;;;7.33;100.00
60170;BME280;46042;49.444;6.862;2023-03-14T02:57:48;96673.84;;;7.29;100.00
60170;BME280;46042;49.444;6.862;2023-03-14T03:00:15;96667.88;;;7.27;100.00
60170;BME280;46042;49.444;6.862;2023-03-14T03:02:42;96665.66;;;7.22;100.00
60170;BME280;46042;49.444;6.862;2023-03-14T03:05:08;96661.38;;;7.21;100.00
60170;BME280;46042;49.444;6.862;2023-03-14T03:07:35;96665.47;;;7.14;100.00
60170;BME280;46042;49.444;6.862;2023-03-14T03:10:02;96648.66;;;7.17;100.00
60170;BME280;46042;49.444;6.862;2023-03-14T03:12:29;96657.06;;;7.10;100.00
60170;BME280;46042;49.444;6.862;2023-03-14T03:14:56;96648.34;;;7.10;100.00
60170;BME280;46042;49.444;6.862;2023-03-14T03:17:22;96648.94;;;7.14;100.00
60170;BME280;46042;49.444;6.862;2023-03-14T03:19:49;96641.91;;;7.14;100.00
60170;BME280;46042;49.444;6.862;2023-03-14T03:22:15;96635.84;;;7.14;100.00
60170;BME280;46042;49.444;6.862;2023-03-14T03:24:42;96642.75;;;7.15;100.00
60170;BME280;46042;49.444;6.862;2023-03-14T03:27:09;96636.66;;;7.14;100.00
60170;BME280;46042;49.444;6.862;2023-03-14T03:29:35;96634.63;;;7.18;100.00
60170;BME280;46042;49.444;6.862;2023-03-14T03:32:02;96633.59;;;7.09;100.00
60170;BME280;46042;49.444;6.862;2023-03-14T03:34:29;96640.63;;;7.08;100.00
60170;BME280;46042;49.444;6.862;2023-03-14T03:36:56;96630.03;;;7.10;100.00
60170;BME280;46042;49.444;6.862;2023-03-14T03:39:23;96625.75;;;7.09;100.00
60170;BME280;46042;49.444;6.862;2023-03-14T03:41:50;96625.63;;;7.10;100.00
60170;BME280;46042;49.444;6.862;2023-03-14T03:44:16;96628.25;;;7.10;100.00
60170;BME280;46042;49.444;6.862;2023-03-14T03:46:43;96623.41;;;7.06;100.00
60170;BME280;46042;49.444;6.862;2023-03-14T03:49:09;96623.41;;;7.06;100.00
60170;BME280;46042;49.444;6.862;2023-03-14T03:51:36;96612.09;;;7.05;100.00
60170;BME280;46042;49.444;6.862;2023-03-14T03:54:03;96612.66;;;7.09;100.00
60170;BME280;46042;49.444;6.862;2023-03-14T03:56:29;96616.66;;;7.13;100.00
60170;BME280;46042;49.444;6.862;2023-03-14T03:58:57;96628.38;;;7.09;100.00
60170;BME280;46042;49.444;6.862;2023-03-14T04:01:24;96622.28;;;7.08;100.00
60170;BME280;46042;49.444;6.862;2023-03-14T04:03:51;96627.41;;;7.10;100.00
60170;BME280;46042;49.444;6.862;2023-03-14T04:06:17;96620.78;;;7.06;100.00
60170;BME280;46042;49.444;6.862;2023-03-14T04:08:44;96625.75;;;7.09;100.00
60170;BME280;46042;49.444;6.862;2023-03-14T04:11:11;96617.19;;;7.07;100.00
60170;BME280;46042;49.444;6.862;2023-03-14T04:13:37;96622.56;;;7.05;100.00
60170;BME280;46042;49.444;6.862;2023-03-14T04:16:12;96626.28;;;7.03;100.00
60170;BME280;46042;49.444;6.862;2023-03-14T04:18:41;96627.34;;;7.00;100.00
60170;BME280;46042;49.444;6.862;2023-03-14T04:21:07;96628.75;;;7.04;100.00
60170;BME280;46042;49.444;6.862;2023-03-14T04:23:34;96621.28;;;7.00;100.00
60170;BME280;46042;49.444;6.862;2023-03-14T04:26:01;96615.06;;;7.01;100.00
60170;BME280;46042;49.444;6.862;2023-03-14T04:28:27;96615.81;;;7.03;100.00
60170;BME280;46042;49.444;6.862;2023-03-14T04:30:54;96626.28;;;7.03;100.00
60170;BME280;46042;49.444;6.862;2023-03-14T04:33:21;96616.72;;;7.02;100.00
60170;BME280;46042;49.444;6.862;2023-03-14T04:35:48;96615.06;;;7.01;100.00
60170;BME280;46042;49.444;6.862;2023-03-14T04:38:16;96604.59;;;7.01;100.00
60170;BME280;46042;49.444;6.862;2023-03-14T04:40:43;96605.56;;;7.00;100.00
60170;BME280;46042;49.444;6.862;2023-03-14T04:43:11;96609.72;;;7.02;100.00
60170;BME280;46042;49.444;6.862;2023-03-14T04:45:41;96597.72;;;7.00;100.00
60170;BME280;46042;49.444;6.862;2023-03-14T04:48:08;96604.59;;;7.01;100.00
60170;BME280;46042;49.444;6.862;2023-03-14T04:50:35;96594.97;;;7.01;100.00
60170;BME280;46042;49.444;6.862;2023-03-14T04:53:01;96581.88;;;7.01;100.00
60170;BME280;46042;49.444;6.862;2023-03-14T04:55:28;96575.44;;;7.05;100.00
60170;BME280;46042;49.444;6.862;2023-03-14T04:57:55;96578.03;;;7.05;100.00
60170;BME280;46042;49.444;6.862;2023-03-14T05:00:21;96566.88;;;7.03;100.00
60170;BME280;46042;49.444;6.862;2023-03-14T05:02:48;96563.72;;;7.09;100.00
60170;BME280;46042;49.444;6.862;2023-03-14T05:05:15;96563.31;;;7.04;100.00
60170;BME280;46042;49.444;6.862;2023-03-14T05:07:41;96558.22;;;7.03;100.00
60170;BME280;46042;49.444;6.862;2023-03-14T05:10:09;96566.56;;;6.96;100.00
60170;BME280;46042;49.444;6.862;2023-03-14T05:12:36;96565.59;;;6.97;100.00
60170;BME280;46042;49.444;6.862;2023-03-14T05:15:03;96550.16;;;6.94;100.00
60170;BME280;46042;49.444;6.862;2023-03-14T05:17:32;96562.44;;;6.94;100.00
60170;BME280;46042;49.444;6.862;2023-03-14T05:19:59;96553.88;;;6.92;100.00
60170;BME280;46042;49.444;6.862;2023-03-14T05:22:26;96542.44;;;6.93;100.00
60170;BME280;46042;49.444;6.862;2023-03-14T05:24:52;96539.00;;;6.92;100.00
60170;BME280;46042;49.444;6.862;2023-03-14T05:27:24;96535.81;;;6.89;100.00
60170;BME280;46042;49.444;6.862;2023-03-14T05:29:51;96527.16;;;6.88;100.00
60170;BME280;46042;49.444;6.862;2023-03-14T05:32:18;96533.56;;;6.84;100.00
60170;BME280;46042;49.444;6.862;2023-03-14T05:34:44;96518.19;;;6.91;100.00
60170;BME280;46042;49.444;6.862;2023-03-14T05:37:11;96525.22;;;6.90;100.00
60170;BME280;46042;49.444;6.862;2023-03-14T05:39:38;96521.75;;;6.90;100.00
60170;BME280;46042;49.444;6.862;2023-03-14T05:42:04;96524.53;;;6.88;100.00
60170;BME280;46042;49.444;6.862;2023-03-14T05:44:31;96517.75;;;6.86;100.00
60170;BME280;46042;49.444;6.862;2023-03-14T05:46:58;96519.56;;;6.85;100.00
60170;BME280;46042;49.444;6.862;2023-03-14T05:49:24;96517.75;;;6.86;100.00
60170;BME280;46042;49.444;6.862;2023-03-14T05:51:51;96504.09;;;6.82;100.00
60170;BME280;46042;49.444;6.862;2023-03-14T05:54:18;96506.72;;;6.82;100.00
60170;BME280;46042;49.444;6.862;2023-03-14T05:56:45;96503.97;;;6.83;100.00
60170;BME280;46042;49.444;6.862;2023-03-14T05:59:11;96502.16;;;6.84;100.00
60170;BME280;46042;49.444;6.862;2023-03-14T06:01:40;96505.75;;;6.83;100.00
60170;BME280;46042;49.444;6.862;2023-03-14T06:04:06;96509.31;;;6.82;100.00
60170;BME280;46042;49.444;6.862;2023-03-14T06:06:33;96502.16;;;6.84;100.00
60170;BME280;46042;49.444;6.862;2023-03-14T06:09:00;96503.00;;;6.85;100.00
60170;BME280;46042;49.444;6.862;2023-03-14T06:11:26;96491.47;;;6.87;100.00
60170;BME280;46042;49.444;6.862;2023-03-14T06:13:53;96511.56;;;6.87;100.00
60170;BME280;46042;49.444;6.862;2023-03-14T06:16:20;96499.75;;;6.92;100.00
60170;BME280;46042;49.444;6.862;2023-03-14T06:18:46;96498.91;;;6.92;100.00
60170;BME280;46042;49.444;6.862;2023-03-14T06:21:15;96507.84;;;6.89;100.00
60170;BME280;46042;49.444;6.862;2023-03-14T06:23:44;96501.66;;;6.90;100.00
60170;BME280;46042;49.444;6.862;2023-03-14T06:26:11;96497.94;;;6.93;100.00
60170;BME280;46042;49.444;6.862;2023-03-14T06:28:40;96503.47;;;7.00;100.00
60170;BME280;46042;49.444;6.862;2023-03-14T06:31:07;96503.91;;;6.95;100.00
60170;BME280;46042;49.444;6.862;2023-03-14T06:33:33;96494.25;;;6.95;100.00
60170;BME280;46042;49.444;6.862;2023-03-14T06:36:00;96503.63;;;6.98;100.00
60170;BME280;46042;49.444;6.862;2023-03-14T06:38:27;96499.09;;;7.00;100.00
60170;BME280;46042;49.444;6.862;2023-03-14T06:40:53;96500.34;;;7.06;100.00
60170;BME280;46042;49.444;6.862;2023-03-14T06:43:20;96498.69;;;7.05;100.00
60170;BME280;46042;49.444;6.862;2023-03-14T06:45:47;96492.50;;;7.06;100.00
60170;BME280;46042;49.444;6.862;2023-03-14T06:48:13;96502.81;;;7.07;100.00
60170;BME280;46042;49.444;6.862;2023-03-14T06:50:40;96500.34;;;7.06;100.00
60170;BME280;46042;49.444;6.862;2023-03-14T06:53:08;96490.19;;;7.13;100.00
60170;BME280;46042;49.444;6.862;2023-03-14T06:55:34;96498.16;;;7.11;100.00
60170;BME280;46042;49.444;6.862;2023-03-14T06:58:01;96499.69;;;7.14;100.00
60170;BME280;46042;49.444;6.862;2023-03-14T07:00:28;96497.88;;;7.14;100.00
60170;BME280;46042;49.444;6.862;2023-03-14T07:02:54;96489.91;;;7.16;100.00
60170;BME280;46042;49.444;6.862;2023-03-14T07:05:21;96498.56;;;7.16;100.00
60170;BME280;46042;49.444;6.862;2023-03-14T07:07:48;96501.22;;;7.26;100.00
60170;BME280;46042;49.444;6.862;2023-03-14T07:10:14;96495.88;;;7.28;100.00
60170;BME280;46042;49.444;6.862;2023-03-14T07:12:41;96495.44;;;7.22;100.00
60170;BME280;46042;49.444;6.862;2023-03-14T07:15:08;96516.41;;;7.22;100.00
60170;BME280;46042;49.444;6.862;2023-03-14T07:17:44;96501.94;;;7.28;100.00
60170;BME280;46042;49.444;6.862;2023-03-14T07:20:11;96515.97;;;7.27;100.00
60170;BME280;46042;49.444;6.862;2023-03-14T07:22:37;96507.44;;;7.35;100.00
60170;BME280;46042;49.444;6.862;2023-03-14T07:25:07;96526.63;;;7.35;100.00
60170;BME280;46042;49.444;6.862;2023-03-14T07:27:35;96530.03;;;7.26;100.00
60170;BME280;46042;49.444;6.862;2023-03-14T07:30:02;96531.69;;;7.27;100.00
60170;BME280;46042;49.444;6.862;2023-03-14T07:32:29;96524.97;;;7.34;100.00
60170;BME280;46042;49.444;6.862;2023-03-14T07:34:55;96519.84;;;7.33;100.00
60170;BME280;46042;49.444;6.862;2023-03-14T07:37:22;96515.75;;;7.40;100.00
60170;BME280;46042;49.444;6.862;2023-03-14T07:39:49;96529.16;;;7.47;100.00
60170;BME280;46042;49.444;6.862;2023-03-14T07:42:15;96512.31;;;7.49;100.00
60170;BME280;46042;49.444;6.862;2023-03-14T07:44:42;96512.47;;;7.48;100.00
60170;BME280;46042;49.444;6.862;2023-03-14T07:47:10;96520.31;;;7.48;100.00
60170;BME280;46042;49.444;6.862;2023-03-14T07:49:37;96516.88;;;7.47;100.00
60170;BME280;46042;49.444;6.862;2023-03-14T07:52:04;96521.59;;;7.53;100.00
60170;BME280;46042;49.444;6.862;2023-03-14T07:54:31;96514.41;;;7.56;100.00
60170;BME280;46042;49.444;6.862;2023-03-14T07:56:58;96517.16;;;7.64;100.00
60170;BME280;46042;49.444;6.862;2023-03-14T07:59:27;96517.47;;;7.71;100.00
60170;BME280;46042;49.444;6.862;2023-03-14T08:01:54;96511.94;;;7.74;100.00
60170;BME280;46042;49.444;6.862;2023-03-14T08:04:21;96518.03;;;7.74;100.00
60170;BME280;46042;49.444;6.862;2023-03-14T08:06:47;96524.09;;;7.75;100.00
60170;BME280;46042;49.444;6.862;2023-03-14T08:09:14;96527.66;;;7.74;100.00
60170;BME280;46042;49.444;6.862;2023-03-14T08:11:41;96523.28;;;7.84;100.00
60170;BME280;46042;49.444;6.862;2023-03-14T08:14:08;96530.97;;;7.76;100.00
60170;BME280;46042;49.444;6.862;2023-03-14T08:16:35;96528.38;;;7.86;100.00
60170;BME280;46042;49.444;6.862;2023-03-14T08:19:02;96521.47;;;7.85;100.00
60170;BME280;46042;49.444;6.862;2023-03-14T08:21:28;96525.63;;;7.97;100.00
60170;BME280;46042;49.444;6.862;2023-03-14T08:23:55;96527.84;;;7.92;100.00
60170;BME280;46042;49.444;6.862;2023-03-14T08:26:21;96521.47;;;7.94;100.00
60170;BME280;46042;49.444;6.862;2023-03-14T08:28:48;96531.16;;;7.94;100.00
60170;BME280;46042;49.444;6.862;2023-03-14T08:31:15;96528.81;;;8.01;100.00
60170;BME280;46042;49.444;6.862;2023-03-14T08:33:42;96527.84;;;7.92;100.00
60170;BME280;46042;49.444;6.862;2023-03-14T08:36:09;96536.00;;;8.08;100.00
60170;BME280;46042;49.444;6.862;2023-03-14T08:38:36;96530.31;;;8.13;100.00
60170;BME280;46042;49.444;6.862;2023-03-14T08:41:03;96527.56;;;8.05;100.00
60170;BME280;46042;49.444;6.862;2023-03-14T08:43:30;96533.91;;;8.02;100.00
60170;BME280;46042;49.444;6.862;2023-03-14T08:45:58;96529.09;;;8.07;100.00
60170;BME280;46042;49.444;6.862;2023-03-14T08:48:25;96537.09;;;8.06;100.00
60170;BME280;46042;49.444;6.862;2023-03-14T08:50:51;96530.88;;;7.97;100.00
60170;BME280;46042;49.444;6.862;2023-03-14T08:53:18;96520.53;;;8.05;100.00
60170;BME280;46042;49.444;6.862;2023-03-14T08:55:45;96513.38;;;8.07;100.00
60170;BME280;46042;49.444;6.862;2023-03-14T08:58:11;96531.97;;;8.04;100.00
60170;BME280;46042;49.444;6.862;2023-03-14T09:00:38;96514.47;;;8.05;100.00
60170;BME280;46042;49.444;6.862;2023-03-14T09:03:05;96524.66;;;8.08;100.00
60170;BME280;46042;49.444;6.862;2023-03-14T09:05:33;96524.53;;;8.09;100.00
60170;BME280;46042;49.444;6.862;2023-03-14T09:08:01;96525.91;;;8.04;100.00
60170;BME280;46042;49.444;6.862;2023-03-14T09:10:27;96526.03;;;8.02;100.00
60170;BME280;46042;49.444;6.862;2023-03-14T09:12:54;96538.06;;;8.05;100.00
60170;BME280;46042;49.444;6.862;2023-03-14T09:15:22;96542.44;;;7.94;100.00
60170;BME280;46042;49.444;6.862;2023-03-14T09:17:48;96534.06;;;7.91;100.00
60170;BME280;46042;49.444;6.862;2023-03-14T09:20:15;96540.94;;;7.92;100.00
60170;BME280;46042;49.444;6.862;2023-03-14T09:22:42;96554.47;;;7.87;100.00
60170;BME280;46042;49.444;6.862;2023-03-14T09:25:09;96558.16;;;7.85;100.00
60170;BME280;46042;49.444;6.862;2023-03-14T09:27:37;96558.47;;;7.91;100.00
60170;BME280;46042;49.444;6.862;2023-03-14T09:30:04;96562.59;;;7.94;100.00
60170;BME280;46042;49.444;6.862;2023-03-14T09:32:31;96569.63;;;7.93;100.00
60170;BME280;46042;49.444;6.862;2023-03-14T09:34:58;96571.97;;;7.87;100.00
60170;BME280;46042;49.444;6.862;2023-03-14T09:37:24;96585.63;;;7.90;100.00
60170;BME280;46042;49.444;6.862;2023-03-14T09:39:51;96584.56;;;7.93;100.00
60170;BME280;46042;49.444;6.862;2023-03-14T09:42:22;96591.44;;;7.94;100.00
60170;BME280;46042;49.444;6.862;2023-03-14T09:44:59;96598.47;;;8.03;100.00
60170;BME280;46042;49.444;6.862;2023-03-14T09:47:27;96600.28;;;7.93;100.00
60170;BME280;46042;49.444;6.862;2023-03-14T09:49:54;96629.91;;;7.83;100.00
60170;BME280;46042;49.444;6.862;2023-03-14T09:52:29;96635.44;;;7.80;100.00
60170;BME280;46042;49.444;6.862;2023-03-14T09:54:59;96640.75;;;7.69;100.00
60170;BME280;46042;49.444;6.862;2023-03-14T09:57:29;96630.09;;;7.51;100.00
60170;BME280;46042;49.444;6.862;2023-03-14T10:00:14;96652.09;;;7.38;100.00
60170;BME280;46042;49.444;6.862;2023-03-14T10:02:55;96657.41;;;7.27;100.00
60170;BME280;46042;49.444;6.862;2023-03-14T10:05:25;96663.47;;;7.28;100.00
60170;BME280;46042;49.444;6.862;2023-03-14T10:07:53;96660.81;;;7.18;100.00
60170;BME280;46042;49.444;6.862;2023-03-14T10:10:22;96670.69;;;7.14;100.00
60170;BME280;46042;49.444;6.862;2023-03-14T10:13:05;96670.19;;;7.20;100.00
60170;BME280;46042;49.444;6.862;2023-03-14T10:15:35;96690.00;;;7.13;100.00
60170;BME280;46042;49.444;6.862;2023-03-14T10:18:04;96704.94;;;7.22;100.00
60170;BME280;46042;49.444;6.862;2023-03-14T10:20:40;96716.44;;;7.10;100.00
60170;BME280;46042;49.444;6.862;2023-03-14T10:25:41;96745.50;;;7.07;100.00
60170;BME280;46042;49.444;6.862;2023-03-14T10:28:24;96752.56;;;7.16;100.00
60170;BME280;46042;49.444;6.862;2023-03-14T10:30:51;96764.16;;;7.14;100.00
60170;BME280;46042;49.444;6.862;2023-03-14T10:35:45;96804.16;;;7.04;100.00
60170;BME280;46042;49.444;6.862;2023-03-14T10:38:16;96809.84;;;7.09;100.00
60170;BME280;46042;49.444;6.862;2023-03-14T10:40:48;96825.66;;;7.19;100.00
60170;BME280;46042;49.444;6.862;2023-03-14T10:43:17;96843.25;;;7.17;100.00
60170;BME280;46042;49.444;6.862;2023-03-14T10:45:58;96855.78;;;7.14;100.00
60170;BME280;46042;49.444;6.862;2023-03-14T10:48:36;96880.38;;;6.78;100.00
60170;BME280;46042;49.444;6.862;2023-03-14T10:51:27;96897.03;;;6.54;100.00
60170;BME280;46042;49.444;6.862;2023-03-14T10:54:04;96903.81;;;6.23;100.00
60170;BME280;46042;49.444;6.862;2023-03-14T10:56:38;96914.09;;;6.02;100.00
60170;BME280;46042;49.444;6.862;2023-03-14T10:59:13;96926.03;;;5.93;100.00
60170;BME280;46042;49.444;6.862;2023-03-14T11:01:58;96941.25;;;5.99;100.00
60170;BME280;46042;49.444;6.862;2023-03-14T11:07:42;96959.81;;;6.43;100.00
60170;BME280;46042;49.444;6.862;2023-03-14T11:10:14;96972.56;;;7.05;100.00
60170;BME280;46042;49.444;6.862;2023-03-14T11:19:10;96994.94;;;7.09;100.00
60170;BME280;46042;49.444;6.862;2023-03-14T11:24:36;97030.50;;;7.23;100.00
60170;BME280;46042;49.444;6.862;2023-03-14T11:27:23;97031.94;;;7.16;100.00
60170;BME280;46042;49.444;6.862;2023-03-14T11:30:19;97035.16;;;7.19;100.00
60170;BME280;46042;49.444;6.862;2023-03-14T11:35:39;97056.09;;;7.31;100.00
60170;BME280;46042;49.444;6.862;2023-03-14T11:40:38;97069.66;;;7.36;99.85
60170;BME280;46042;49.444;6.862;2023-03-14T11:45:42;97078.06;;;8.18;97.59
60170;BME280;46042;49.444;6.862;2023-03-14T11:51:09;97089.66;;;7.48;96.08
60170;BME280;46042;49.444;6.862;2023-03-14T11:53:57;97113.84;;;7.40;95.87
60170;BME280;46042;49.444;6.862;2023-03-14T11:56:54;97126.47;;;7.47;96.31
60170;BME280;46042;49.444;6.862;2023-03-14T11:59:27;97127.75;;;7.07;91.08
60170;BME280;46042;49.444;6.862;2023-03-14T12:02:05;97140.69;;;6.86;90.90
60170;BME280;46042;49.444;6.862;2023-03-14T12:10:48;97149.91;;;6.67;89.92
60170;BME280;46042;49.444;6.862;2023-03-14T12:13:16;97155.59;;;6.61;85.15
60170;BME280;46042;49.444;6.862;2023-03-14T12:15:58;97170.59;;;6.70;88.07
60170;BME280;46042;49.444;6.862;2023-03-14T12:18:29;97175.03;;;6.81;89.84
60170;BME280;46042;49.444;6.862;2023-03-14T12:20:59;97184.66;;;7.16;84.93
60170;BME280;46042;49.444;6.862;2023-03-14T12:23:28;97193.53;;;7.95;85.35
60170;BME280;46042;49.444;6.862;2023-03-14T12:28:48;97200.28;;;8.76;73.33
60170;BME280;46042;49.444;6.862;2023-03-14T12:34:27;97214.25;;;9.09;72.05
60170;BME280;46042;49.444;6.862;2023-03-14T12:39:58;97231.59;;;8.45;75.86
60170;BME280;46042;49.444;6.862;2023-03-14T12:45:33;97241.91;;;8.14;75.87
60170;BME280;46042;49.444;6.862;2023-03-14T12:48:20;97248.44;;;8.65;81.52
60170;BME280;46042;49.444;6.862;2023-03-14T12:50:55;97248.81;;;8.81;72.82
60170;BME280;46042;49.444;6.862;2023-03-14T13:01:17;97267.59;;;8.77;81.37
60170;BME280;46042;49.444;6.862;2023-03-14T13:03:54;97269.09;;;8.58;74.36
60170;BME280;46042;49.444;6.862;2023-03-14T13:11:56;97281.78;;;9.39;72.39
60170;BME280;46042;49.444;6.862;2023-03-14T13:14:29;97274.72;;;9.82;70.31
60170;BME280;46042;49.444;6.862;2023-03-14T13:17:00;97285.06;;;10.05;68.93
60170;BME280;46042;49.444;6.862;2023-03-14T13:19:53;97291.63;;;10.42;68.84
60170;BME280;46042;49.444;6.862;2023-03-14T13:22:26;97290.38;;;10.46;69.50
60170;BME280;46042;49.444;6.862;2023-03-14T13:25:10;97306.66;;;9.78;66.56
60170;BME280;46042;49.444;6.862;2023-03-14T13:27:37;97311.66;;;10.02;66.07
60170;BME280;46042;49.444;6.862;2023-03-14T13:30:19;97288.56;;;10.06;69.00
60170;BME280;46042;49.444;6.862;2023-03-14T13:32:48;97314.38;;;9.16;64.67
60170;BME280;46042;49.444;6.862;2023-03-14T13:35:21;97340.50;;;9.29;62.77
60170;BME280;46042;49.444;6.862;2023-03-14T13:37:57;97327.25;;;9.51;63.63
60170;BME280;46042;49.444;6.862;2023-03-14T13:40:37;97343.47;;;9.35;60.65
60170;BME280;46042;49.444;6.862;2023-03-14T13:43:11;97347.81;;;9.14;65.19
60170;BME280;46042;49.444;6.862;2023-03-14T13:45:51;97353.06;;;9.14;66.70
60170;BME280;46042;49.444;6.862;2023-03-14T13:48:20;97362.41;;;9.18;66.38
60170;BME280;46042;49.444;6.862;2023-03-14T13:50:56;97358.22;;;9.15;63.88
60170;BME280;46042;49.444;6.862;2023-03-14T13:53:25;97366.28;;;8.79;63.90
60170;BME280;46042;49.444;6.862;2023-03-14T13:55:52;97369.28;;;8.63;62.75
60170;BME280;46042;49.444;6.862;2023-03-14T13:58:22;97372.28;;;9.58;67.76
60170;BME280;46042;49.444;6.862;2023-03-14T14:01:10;97361.84;;;10.42;66.47
60170;BME280;46042;49.444;6.862;2023-03-14T14:03:39;97376.44;;;10.87;60.62
60170;BME280;46042;49.444;6.862;2023-03-14T14:06:16;97363.16;;;11.08;59.62
60170;BME280;46042;49.444;6.862;2023-03-14T14:08:46;97365.28;;;11.24;63.17
60170;BME280;46042;49.444;6.862;2023-03-14T14:11:27;97375.56;;;11.37;60.53
60170;BME280;46042;49.444;6.862;2023-03-14T14:16:52;97382.50;;;10.77;59.38
60170;BME280;46042;49.444;6.862;2023-03-14T14:19:21;97384.06;;;10.49;62.73
60170;BME280;46042;49.444;6.862;2023-03-14T14:21:50;97390.88;;;10.92;58.60
60170;BME280;46042;49.444;6.862;2023-03-14T14:24:17;97376.09;;;10.39;61.10
60170;BME280;46042;49.444;6.862;2023-03-14T14:26:51;97381.31;;;10.60;58.47